createdAt,value
2022-09-24T00:00:29.431Z,6.40
2022-09-24T00:02:32.170Z,6.67
2022-09-24T00:04:35.760Z,5.83
2022-09-24T00:06:40.925Z,6.80
2022-09-24T00:08:43.600Z,5.80
2022-09-24T00:10:48.829Z,5.60
2022-09-24T00:12:52.368Z,6.40
2022-09-24T00:14:55.131Z,5.90
2022-09-24T00:16:59.169Z,5.83
2022-09-24T00:19:02.776Z,6.80
2022-09-24T00:21:13.795Z,5.80
2022-09-24T00:23:16.502Z,5.87
2022-09-24T00:25:37.034Z,6.40
2022-09-24T00:27:39.720Z,5.80
2022-09-24T00:29:42.395Z,6.23
2022-09-24T00:31:45.145Z,5.93
2022-09-24T00:33:52.228Z,6.27
2022-09-24T00:35:58.798Z,5.70
2022-09-24T00:38:01.506Z,6.57
2022-09-24T00:40:04.516Z,5.73
2022-09-24T00:42:07.329Z,5.60
2022-09-24T00:44:44.704Z,6.00
2022-09-24T00:46:47.513Z,6.90
2022-09-24T00:48:51.861Z,6.60
2022-09-24T00:50:54.541Z,6.63
2022-09-24T00:52:58.546Z,6.60
2022-09-24T00:55:01.336Z,6.30
2022-09-24T00:57:04.149Z,6.67
2022-09-24T00:59:07.441Z,5.90
2022-09-24T01:01:10.551Z,5.67
2022-09-24T01:03:14.723Z,6.60
2022-09-24T01:05:19.461Z,6.20
2022-09-24T01:07:22.157Z,7.43
2022-09-24T01:09:26.271Z,5.60
2022-09-24T01:11:37.135Z,5.70
2022-09-24T01:13:51.631Z,6.53
2022-09-24T01:15:56.592Z,6.70
2022-09-24T01:18:01.402Z,7.23
2022-09-24T01:20:47.843Z,6.53
2022-09-24T01:22:58.827Z,7.43
2022-09-24T01:25:02.401Z,7.57
2022-09-24T01:27:07.295Z,7.67
2022-09-24T01:29:33.243Z,7.37
2022-09-24T01:31:38.790Z,7.63
2022-09-24T01:33:41.488Z,7.60
2022-09-24T01:35:45.305Z,8.60
2022-09-24T01:37:50.085Z,9.03
2022-09-24T01:39:53.163Z,7.80
2022-09-24T01:41:57.224Z,7.23
2022-09-24T01:44:00.253Z,8.00
2022-09-24T01:46:05.973Z,8.83
2022-09-24T01:48:08.903Z,7.53
2022-09-24T01:50:13.399Z,6.83
2022-09-24T01:52:17.489Z,7.37
2022-09-24T01:54:21.922Z,7.70
2022-09-24T01:56:25.878Z,7.13
2022-09-24T01:58:30.239Z,7.33
2022-09-24T02:00:32.990Z,7.77
2022-09-24T02:02:39.621Z,7.90
2022-09-24T02:04:43.539Z,8.27
2022-09-24T02:06:48.496Z,7.73
2022-09-24T02:08:51.173Z,7.77
2022-09-24T02:10:55.865Z,6.97
2022-09-24T02:13:00.034Z,7.50
2022-09-24T02:15:05.104Z,7.70
2022-09-24T02:17:07.999Z,8.00
2022-09-24T02:19:13.088Z,7.73
2022-09-24T02:21:17.017Z,7.17
2022-09-24T02:23:19.745Z,8.80
2022-09-24T02:25:26.064Z,8.60
2022-09-24T02:27:28.921Z,8.10
2022-09-24T02:29:31.601Z,8.60
2022-09-24T02:31:35.830Z,7.87
2022-09-24T02:33:56.533Z,8.07
2022-09-24T02:36:00.567Z,8.50
2022-09-24T02:38:06.290Z,8.33
2022-09-24T02:40:10.547Z,8.37
2022-09-24T02:42:14.185Z,7.70
2022-09-24T02:44:16.988Z,8.53
2022-09-24T02:46:19.833Z,8.33
2022-09-24T02:48:22.536Z,8.30
2022-09-24T02:50:25.209Z,10.27
2022-09-24T02:52:29.241Z,9.47
2022-09-24T02:54:32.123Z,9.73
2022-09-24T02:56:34.892Z,9.57
2022-09-24T02:58:38.013Z,9.10
2022-09-24T03:00:40.685Z,9.60
2022-09-24T03:02:43.590Z,9.83
2022-09-24T03:04:47.089Z,9.63
2022-09-24T03:06:49.790Z,11.03
2022-09-24T03:08:54.136Z,11.83
2022-09-24T03:10:56.914Z,11.80
2022-09-24T03:12:59.986Z,12.07
2022-09-24T03:15:02.664Z,13.87
2022-09-24T03:17:05.350Z,15.60
2022-09-24T03:19:08.352Z,17.57
2022-09-24T03:21:12.252Z,15.17
2022-09-24T03:23:14.949Z,13.87
2022-09-24T03:25:18.981Z,15.80
2022-09-24T03:27:21.909Z,15.57
2022-09-24T03:29:45.015Z,15.67
2022-09-24T03:31:46.786Z,16.97
2022-09-24T03:33:49.931Z,17.03
2022-09-24T03:35:56.741Z,17.20
2022-09-24T03:37:59.436Z,16.87
2022-09-24T03:40:02.526Z,14.60
2022-09-24T03:42:06.712Z,15.90
2022-09-24T03:44:09.433Z,17.60
2022-09-24T03:46:12.637Z,16.77
2022-09-24T03:48:15.637Z,16.80
2022-09-24T03:50:18.461Z,19.70
2022-09-24T03:52:21.174Z,21.90
2022-09-24T03:54:23.855Z,19.93
2022-09-24T03:56:26.553Z,18.10
2022-09-24T03:58:31.604Z,18.97
2022-09-24T04:00:37.588Z,20.73
2022-09-24T04:02:43.684Z,18.03
2022-09-24T04:04:46.425Z,20.47
2022-09-24T04:06:49.807Z,18.80
2022-09-24T04:08:52.488Z,17.80
2022-09-24T04:10:55.321Z,18.60
2022-09-24T04:12:58.470Z,19.27
2022-09-24T04:15:02.928Z,20.00
2022-09-24T04:17:05.954Z,17.77
2022-09-24T04:19:08.635Z,20.40
2022-09-24T04:21:11.343Z,19.10
2022-09-24T04:23:14.060Z,19.30
2022-09-24T04:25:16.809Z,21.67
2022-09-24T04:27:20.524Z,21.07
2022-09-24T04:29:23.197Z,20.87
2022-09-24T04:31:27.533Z,22.10
2022-09-24T04:33:30.321Z,21.00
2022-09-24T04:35:35.821Z,20.90
2022-09-24T04:37:38.520Z,22.17
2022-09-24T04:39:41.188Z,24.03
2022-09-24T04:41:43.901Z,23.60
2022-09-24T04:43:47.229Z,22.10
2022-09-24T04:45:49.904Z,21.70
2022-09-24T04:47:57.727Z,19.37
2022-09-24T04:50:02.573Z,20.57
2022-09-24T04:52:05.244Z,17.73
2022-09-24T04:54:09.605Z,18.40
2022-09-24T04:56:12.576Z,18.67
2022-09-24T04:58:15.269Z,19.90
2022-09-24T05:00:19.126Z,19.97
2022-09-24T05:02:24.166Z,21.80
2022-09-24T05:04:28.790Z,20.17
2022-09-24T05:06:31.473Z,22.00
2022-09-24T05:08:34.188Z,23.70
2022-09-24T05:10:36.868Z,22.60
2022-09-24T05:12:41.220Z,21.27
2022-09-24T05:14:43.897Z,23.23
2022-09-24T05:16:46.577Z,21.43
2022-09-24T05:18:49.263Z,24.70
2022-09-24T05:20:53.281Z,21.80
2022-09-24T05:22:55.968Z,22.13
2022-09-24T05:24:58.646Z,22.90
2022-09-24T05:27:09.916Z,21.50
2022-09-24T05:29:12.636Z,22.47
2022-09-24T05:31:15.372Z,23.20
2022-09-24T05:33:18.503Z,23.00
2022-09-24T05:35:21.426Z,22.60
2022-09-24T05:37:25.798Z,22.27
2022-09-24T05:39:33.448Z,21.87
2022-09-24T05:41:36.713Z,21.13
2022-09-24T05:43:39.400Z,22.17
2022-09-24T05:45:42.697Z,21.17
2022-09-24T05:47:46.033Z,20.00
2022-09-24T05:49:48.712Z,20.40
2022-09-24T05:51:51.465Z,20.63
2022-09-24T05:53:55.518Z,20.90
2022-09-24T05:55:58.712Z,19.30
2022-09-24T05:58:06.580Z,21.53
2022-09-24T06:00:09.917Z,20.53
2022-09-24T06:02:12.703Z,19.43
2022-09-24T06:04:16.293Z,19.53
2022-09-24T06:06:18.983Z,19.33
2022-09-24T06:08:21.768Z,20.37
2022-09-24T06:10:26.069Z,19.60
2022-09-24T06:12:28.772Z,18.90
2022-09-24T06:14:31.449Z,18.07
2022-09-24T06:16:34.635Z,17.40
2022-09-24T06:18:38.045Z,18.50
2022-09-24T06:20:41.107Z,18.03
2022-09-24T06:22:43.812Z,20.20
2022-09-24T06:24:46.838Z,18.13
2022-09-24T06:26:51.878Z,16.50
2022-09-24T06:28:54.615Z,18.73
2022-09-24T06:30:57.367Z,17.20
2022-09-24T06:33:03.141Z,18.37
2022-09-24T06:35:06.637Z,16.63
2022-09-24T06:37:09.329Z,16.40
2022-09-24T06:39:12.031Z,18.80
2022-09-24T06:41:14.712Z,17.03
2022-09-24T06:43:18.915Z,17.57
2022-09-24T06:45:21.690Z,16.63
2022-09-24T06:47:25.024Z,14.80
2022-09-24T06:49:31.546Z,16.40
2022-09-24T06:51:36.672Z,17.07
2022-09-24T06:53:39.380Z,16.57
2022-09-24T06:55:42.091Z,14.50
2022-09-24T06:57:44.978Z,16.13
2022-09-24T06:59:50.926Z,14.17
2022-09-24T07:01:53.666Z,15.07
2022-09-24T07:03:56.410Z,14.73
2022-09-24T07:06:01.327Z,13.67
2022-09-24T07:08:04.034Z,15.67
2022-09-24T07:10:07.592Z,17.00
2022-09-24T07:12:10.414Z,16.03
2022-09-24T07:14:13.112Z,14.70
2022-09-24T07:16:17.166Z,15.47
2022-09-24T07:18:20.085Z,15.33
2022-09-24T07:20:22.796Z,15.73
2022-09-24T07:22:25.570Z,15.33
2022-09-24T07:24:28.602Z,16.53
2022-09-24T07:26:31.460Z,15.83
2022-09-24T07:28:34.163Z,16.37
2022-09-24T07:30:37.361Z,16.53
2022-09-24T07:32:41.398Z,17.43
2022-09-24T07:34:44.079Z,16.80
2022-09-24T07:36:46.758Z,16.77
2022-09-24T07:38:49.464Z,18.60
2022-09-24T07:40:58.403Z,19.43
2022-09-24T07:43:01.251Z,18.70
2022-09-24T07:45:04.166Z,18.13
2022-09-24T07:47:07.039Z,19.10
2022-09-24T07:49:11.064Z,22.30
2022-09-24T07:51:13.743Z,18.80
2022-09-24T07:53:16.865Z,20.87
2022-09-24T07:55:19.782Z,19.17
2022-09-24T07:57:22.482Z,18.87
2022-09-24T07:59:25.819Z,17.50
2022-09-24T08:01:28.532Z,18.60
2022-09-24T08:03:32.319Z,18.80
2022-09-24T08:05:36.370Z,17.50
2022-09-24T08:07:39.092Z,18.03
2022-09-24T08:09:41.793Z,17.30
2022-09-24T08:11:44.716Z,17.77
2022-09-24T08:13:47.416Z,18.00
2022-09-24T08:15:57.162Z,15.90
2022-09-24T08:18:02.515Z,16.20
2022-09-24T08:20:05.750Z,17.47
2022-09-24T08:22:09.833Z,17.20
2022-09-24T08:24:12.637Z,16.77
2022-09-24T08:26:15.328Z,16.13
2022-09-24T08:28:19.647Z,14.63
2022-09-24T08:30:22.328Z,14.93
2022-09-24T08:32:25.093Z,16.53
2022-09-24T08:34:28.118Z,15.20
2022-09-24T08:36:30.806Z,15.57
2022-09-24T08:38:34.869Z,14.37
2022-09-24T08:40:38.887Z,14.57
2022-09-24T08:42:43.888Z,14.50
2022-09-24T08:45:04.464Z,15.27
2022-09-24T08:47:24.746Z,15.53
2022-09-24T08:49:32.721Z,14.07
2022-09-24T08:51:39.237Z,15.03
2022-09-24T08:53:48.592Z,15.37
2022-09-24T08:55:52.306Z,14.40
2022-09-24T08:57:59.240Z,15.27
2022-09-24T09:00:02.187Z,15.57
2022-09-24T09:02:16.609Z,15.83
2022-09-24T09:04:25.534Z,14.63
2022-09-24T09:06:55.841Z,16.27
2022-09-24T09:09:07.181Z,15.47
2022-09-24T09:11:11.501Z,16.00
2022-09-24T09:13:14.895Z,14.23
2022-09-24T09:15:19.066Z,14.70
2022-09-24T09:17:34.888Z,15.27
2022-09-24T09:19:37.778Z,15.97
2022-09-24T09:21:41.715Z,15.40
2022-09-24T09:23:47.932Z,15.27
2022-09-24T09:25:54.030Z,15.43
2022-09-24T09:27:59.615Z,16.03
2022-09-24T09:30:09.163Z,15.30
2022-09-24T09:32:22.552Z,15.37
2022-09-24T09:34:33.168Z,17.00
2022-09-24T09:36:46.082Z,14.60
2022-09-24T09:38:51.046Z,14.50
2022-09-24T09:40:58.825Z,16.47
2022-09-24T09:43:03.762Z,16.37
2022-09-24T09:45:16.507Z,15.63
2022-09-24T09:47:24.768Z,16.93
2022-09-24T09:49:28.979Z,18.07
2022-09-24T09:51:34.618Z,18.47
2022-09-24T09:53:37.908Z,17.90
2022-09-24T09:55:40.597Z,19.10
2022-09-24T09:57:45.251Z,18.40
2022-09-24T09:59:48.230Z,21.07
2022-09-24T10:01:55.691Z,19.20
2022-09-24T10:04:03.085Z,19.00
2022-09-24T10:06:07.266Z,21.13
2022-09-24T10:08:21.680Z,21.97
2022-09-24T10:10:25.186Z,22.13
2022-09-24T10:12:27.904Z,21.70
2022-09-24T10:14:31.943Z,21.53
2022-09-24T10:16:38.550Z,18.67
2022-09-24T10:18:43.796Z,20.53
2022-09-24T10:20:48.112Z,18.70
2022-09-24T10:22:52.182Z,19.47
2022-09-24T10:24:55.850Z,18.77
2022-09-24T10:26:58.604Z,15.67
2022-09-24T10:29:18.884Z,17.03
2022-09-24T10:31:23.639Z,17.67
2022-09-24T10:33:26.433Z,15.33
2022-09-24T10:35:30.178Z,14.00
2022-09-24T10:37:32.882Z,13.47
2022-09-24T10:39:35.562Z,14.43
2022-09-24T10:41:38.416Z,14.97
2022-09-24T10:43:41.334Z,14.57
2022-09-24T10:45:53.049Z,13.87
2022-09-24T10:47:58.759Z,12.87
2022-09-24T10:50:18.502Z,13.20
2022-09-24T10:52:31.829Z,13.60
2022-09-24T10:54:43.149Z,14.50
2022-09-24T10:56:48.821Z,14.33
2022-09-24T10:59:07.635Z,13.90
2022-09-24T11:01:15.041Z,13.40
2022-09-24T11:03:30.705Z,14.73
2022-09-24T11:05:34.566Z,14.20
2022-09-24T11:07:55.081Z,14.30
2022-09-24T11:09:59.312Z,12.63
2022-09-24T11:12:05.217Z,13.67
2022-09-24T11:14:17.012Z,13.80
2022-09-24T11:16:38.853Z,13.90
2022-09-24T11:18:46.777Z,13.03
2022-09-24T11:20:51.336Z,12.03
2022-09-24T11:23:31.368Z,13.27
2022-09-24T11:25:38.473Z,11.77
2022-09-24T11:27:50.203Z,13.23
2022-09-24T11:30:00.042Z,13.07
2022-09-24T11:32:08.233Z,12.23
2022-09-24T11:34:24.067Z,12.33
2022-09-24T11:36:37.388Z,11.80
2022-09-24T11:39:01.230Z,11.63
2022-09-24T11:41:13.664Z,12.20
2022-09-24T11:43:27.105Z,12.67
2022-09-24T11:45:37.084Z,12.50
2022-09-24T11:47:54.248Z,13.13
2022-09-24T11:50:21.786Z,14.57
2022-09-24T11:52:28.055Z,12.30
2022-09-24T11:54:31.880Z,11.10
2022-09-24T11:56:36.548Z,10.97
2022-09-24T11:58:42.491Z,12.00
2022-09-24T12:00:47.347Z,11.03
2022-09-24T12:02:51.460Z,11.57
2022-09-24T12:04:58.238Z,12.00
2022-09-24T12:07:04.032Z,12.57
2022-09-24T12:09:11.536Z,12.67
2022-09-24T12:11:16.603Z,12.80
2022-09-24T12:13:21.369Z,12.80
2022-09-24T12:15:25.300Z,12.97
2022-09-24T12:17:30.077Z,11.87
2022-09-24T12:19:35.344Z,13.07
2022-09-24T12:21:41.144Z,14.60
2022-09-24T12:23:45.668Z,13.13
2022-09-24T12:25:49.122Z,13.33
2022-09-24T12:27:51.815Z,14.57
2022-09-24T12:30:16.622Z,14.10
2022-09-24T12:32:38.188Z,14.40
2022-09-24T12:34:44.813Z,14.27
2022-09-24T12:36:57.530Z,14.47
2022-09-24T12:39:04.859Z,15.47
2022-09-24T12:41:34.771Z,13.90
2022-09-24T12:43:40.607Z,13.77
2022-09-24T12:45:43.284Z,13.77
2022-09-24T12:47:47.919Z,13.67
2022-09-24T12:49:53.807Z,14.00
2022-09-24T12:51:57.239Z,15.03
2022-09-24T12:54:01.068Z,14.60
2022-09-24T12:56:06.015Z,13.53
2022-09-24T12:58:24.836Z,12.70
2022-09-24T13:00:41.225Z,12.47
2022-09-24T13:02:46.160Z,11.47
2022-09-24T13:04:52.146Z,13.40
2022-09-24T13:06:54.836Z,13.27
2022-09-24T13:08:57.536Z,14.17
2022-09-24T13:11:00.803Z,14.67
2022-09-24T13:13:16.518Z,15.73
2022-09-24T13:15:28.564Z,15.50
2022-09-24T13:17:31.502Z,14.70
2022-09-24T13:19:36.274Z,14.20
2022-09-24T13:21:38.965Z,14.30
2022-09-24T13:23:47.075Z,14.40
2022-09-24T13:25:55.692Z,13.90
2022-09-24T13:28:04.133Z,13.40
2022-09-24T13:30:15.049Z,15.23
2022-09-24T13:32:19.531Z,14.30
2022-09-24T13:34:23.657Z,15.40
2022-09-24T13:36:29.066Z,14.90
2022-09-24T13:38:32.536Z,16.77
2022-09-24T13:40:37.947Z,14.33
2022-09-24T13:42:46.282Z,13.60
2022-09-24T13:44:51.409Z,12.53
2022-09-24T13:46:57.843Z,13.03
2022-09-24T13:49:03.582Z,13.77
2022-09-24T13:51:06.525Z,13.00
2022-09-24T13:53:13.528Z,14.33
2022-09-24T13:55:18.371Z,15.30
2022-09-24T13:57:22.824Z,14.23
2022-09-24T13:59:25.585Z,14.60
2022-09-24T14:01:30.679Z,15.10
2022-09-24T14:03:34.589Z,12.70
2022-09-24T14:05:37.409Z,13.90
2022-09-24T14:07:40.080Z,15.57
2022-09-24T14:09:44.380Z,14.53
2022-09-24T14:11:50.359Z,13.50
2022-09-24T14:13:54.951Z,15.60
2022-09-24T14:15:58.419Z,13.80
2022-09-24T14:18:03.008Z,13.30
2022-09-24T14:20:06.696Z,15.37
2022-09-24T14:22:12.948Z,14.33
2022-09-24T14:24:16.838Z,13.50
2022-09-24T14:26:26.475Z,13.57
2022-09-24T14:28:32.729Z,13.10
2022-09-24T14:30:35.435Z,13.80
2022-09-24T14:32:39.282Z,13.67
2022-09-24T14:34:43.839Z,13.27
2022-09-24T14:36:47.450Z,12.30
2022-09-24T14:38:53.937Z,13.53
2022-09-24T14:40:58.162Z,12.20
2022-09-24T14:43:02.755Z,12.30
2022-09-24T14:45:06.760Z,12.60
2022-09-24T14:47:24.370Z,12.13
2022-09-24T14:49:27.875Z,13.47
2022-09-24T14:51:32.724Z,13.80
2022-09-24T14:53:36.320Z,14.10
2022-09-24T14:55:39.436Z,12.67
2022-09-24T14:57:46.050Z,12.67
2022-09-24T14:59:51.584Z,13.50
2022-09-24T15:02:03.480Z,14.03
2022-09-24T15:04:08.089Z,14.27
2022-09-24T15:06:18.802Z,13.40
2022-09-24T15:08:28.322Z,15.30
2022-09-24T15:10:31.001Z,13.97
2022-09-24T15:12:34.625Z,11.93
2022-09-24T15:14:37.554Z,13.00
2022-09-24T15:16:40.336Z,13.80
2022-09-24T15:18:43.029Z,13.67
2022-09-24T15:20:45.709Z,13.67
2022-09-24T15:22:48.432Z,12.27
2022-09-24T15:24:54.361Z,13.07
2022-09-24T15:27:02.230Z,12.57
2022-09-24T15:29:05.146Z,13.40
2022-09-24T15:31:07.911Z,12.67
2022-09-24T15:33:11.697Z,13.10
2022-09-24T15:35:14.903Z,12.53
2022-09-24T15:37:19.838Z,14.10
2022-09-24T15:39:23.283Z,13.50
2022-09-24T15:41:27.319Z,13.23
2022-09-24T15:43:30.025Z,14.40
2022-09-24T15:45:33.253Z,13.60
2022-09-24T15:47:35.928Z,14.93
2022-09-24T15:49:38.703Z,13.00
2022-09-24T15:51:41.383Z,14.90
2022-09-24T15:53:44.187Z,15.27
2022-09-24T15:55:49.380Z,13.70
2022-09-24T15:57:53.901Z,15.43
2022-09-24T15:59:56.588Z,13.17
2022-09-24T16:02:00.870Z,14.60
2022-09-24T16:04:03.740Z,15.30
2022-09-24T16:06:06.812Z,15.70
2022-09-24T16:08:09.500Z,15.00
2022-09-24T16:10:12.716Z,14.10
2022-09-24T16:12:15.928Z,15.10
2022-09-24T16:14:19.959Z,16.23
2022-09-24T16:16:22.678Z,16.10
2022-09-24T16:18:26.036Z,15.80
2022-09-24T16:20:28.722Z,15.87
2022-09-24T16:22:31.397Z,17.15
2022-09-24T16:24:34.170Z,18.73
2022-09-24T16:26:37.287Z,17.27
2022-09-24T16:28:39.998Z,16.40
2022-09-24T16:30:44.110Z,18.60
2022-09-24T16:32:47.082Z,16.77
2022-09-24T16:34:49.772Z,17.90
2022-09-24T16:36:52.453Z,16.47
2022-09-24T16:38:55.145Z,15.53
2022-09-24T16:41:00.577Z,16.90
2022-09-24T16:43:03.340Z,15.87
2022-09-24T16:45:07.237Z,16.13
2022-09-24T16:47:11.246Z,15.13
2022-09-24T16:49:13.959Z,16.03
2022-09-24T16:51:17.305Z,16.20
2022-09-24T16:53:20.407Z,18.60
2022-09-24T16:55:24.362Z,17.47
2022-09-24T16:57:27.077Z,17.00
2022-09-24T16:59:29.784Z,16.70
2022-09-24T17:01:32.556Z,17.90
2022-09-24T17:03:36.767Z,17.70
2022-09-24T17:05:40.603Z,19.03
2022-09-24T17:07:43.330Z,18.03
2022-09-24T17:10:03.636Z,17.73
2022-09-24T17:12:06.531Z,18.77
2022-09-24T17:14:11.489Z,17.80
2022-09-24T17:16:14.293Z,17.87
2022-09-24T17:18:17.011Z,19.27
2022-09-24T17:20:21.241Z,19.63
2022-09-24T17:22:23.973Z,18.53
2022-09-24T17:24:27.137Z,19.60
2022-09-24T17:26:29.810Z,20.17
2022-09-24T17:28:33.679Z,19.87
2022-09-24T17:30:37.874Z,20.40
2022-09-24T17:32:40.542Z,19.50
2022-09-24T17:34:45.938Z,17.03
2022-09-24T17:36:50.453Z,18.30
2022-09-24T17:38:53.146Z,19.33
2022-09-24T17:40:56.061Z,18.07
2022-09-24T17:42:58.759Z,19.10
2022-09-24T17:45:01.452Z,19.67
2022-09-24T17:47:04.165Z,18.13
2022-09-24T17:49:06.987Z,19.43
2022-09-24T17:51:11.893Z,19.07
2022-09-24T17:53:16.116Z,19.70
2022-09-24T17:55:18.825Z,20.20
2022-09-24T17:57:21.489Z,18.50
2022-09-24T17:59:26.697Z,20.03
2022-09-24T18:01:33.308Z,20.30
2022-09-24T18:03:36.207Z,21.33
2022-09-24T18:05:38.905Z,20.90
2022-09-24T18:07:41.581Z,21.43
2022-09-24T18:09:45.610Z,21.83
2022-09-24T18:11:48.901Z,20.93
2022-09-24T18:13:52.008Z,21.00
2022-09-24T18:15:54.702Z,20.63
2022-09-24T18:17:57.614Z,20.80
2022-09-24T18:20:00.650Z,19.00
2022-09-24T18:22:05.940Z,22.20
2022-09-24T18:24:09.748Z,20.57
2022-09-24T18:26:16.816Z,21.73
2022-09-24T18:28:19.479Z,22.63
2022-09-24T18:30:22.164Z,21.70
2022-09-24T18:32:26.233Z,22.20
2022-09-24T18:34:29.764Z,22.33
2022-09-24T18:36:32.761Z,24.77
2022-09-24T18:38:35.465Z,27.20
2022-09-24T18:40:39.245Z,24.00
2022-09-24T18:42:43.308Z,24.10
2022-09-24T18:44:46.792Z,24.70
2022-09-24T18:46:49.726Z,25.03
2022-09-24T18:48:53.417Z,24.03
2022-09-24T18:50:56.094Z,25.07
2022-09-24T18:52:59.926Z,24.87
2022-09-24T18:55:02.612Z,27.13
2022-09-24T18:57:05.393Z,24.33
2022-09-24T18:59:11.800Z,24.60
2022-09-24T19:01:16.550Z,25.80
2022-09-24T19:03:19.546Z,26.17
2022-09-24T19:05:22.396Z,27.67
2022-09-24T19:07:25.079Z,28.17
2022-09-24T19:09:27.759Z,26.63
2022-09-24T19:11:31.620Z,28.27
2022-09-24T19:13:35.088Z,30.85
2022-09-24T19:15:39.346Z,30.17
2022-09-24T19:17:42.061Z,29.80
2022-09-24T19:19:52.106Z,31.13
2022-09-24T19:21:55.177Z,28.77
2022-09-24T19:23:58.798Z,32.83
2022-09-24T19:26:02.342Z,32.70
2022-09-24T19:28:06.109Z,31.90
2022-09-24T19:30:10.236Z,32.70
2022-09-24T19:32:14.307Z,34.13
2022-09-24T19:34:16.993Z,31.77
2022-09-24T19:36:19.831Z,32.67
2022-09-24T19:38:26.580Z,31.93
2022-09-24T19:40:30.351Z,33.23
2022-09-24T19:42:33.062Z,31.90
2022-09-24T19:44:36.556Z,30.07
2022-09-24T19:46:39.401Z,31.17
2022-09-24T19:48:44.183Z,34.95
2022-09-24T19:50:46.884Z,33.10
2022-09-24T19:52:49.968Z,33.83
2022-09-24T19:54:52.689Z,29.90
2022-09-24T19:56:55.356Z,30.90
2022-09-24T19:58:58.879Z,30.13
2022-09-24T20:01:02.507Z,31.10
2022-09-24T20:03:05.439Z,30.20
2022-09-24T20:05:09.833Z,28.37
2022-09-24T20:07:12.505Z,29.80
2022-09-24T20:09:15.200Z,29.97
2022-09-24T20:11:20.295Z,30.33
2022-09-24T20:13:22.989Z,28.13
2022-09-24T20:15:25.708Z,31.67
2022-09-24T20:17:29.595Z,31.50
2022-09-24T20:19:32.278Z,29.23
2022-09-24T20:21:36.815Z,30.47
2022-09-24T20:23:39.739Z,28.83
2022-09-24T20:26:00.263Z,30.23
2022-09-24T20:28:03.107Z,30.70
2022-09-24T20:30:06.737Z,30.97
2022-09-24T20:32:11.906Z,31.70
2022-09-24T20:34:14.613Z,30.23
2022-09-24T20:36:21.907Z,31.30
2022-09-24T20:38:28.361Z,28.70
2022-09-24T20:40:31.090Z,28.33
2022-09-24T20:42:33.790Z,22.87
2022-09-24T20:44:37.349Z,23.50
2022-09-24T20:46:40.201Z,24.80
2022-09-24T20:48:43.038Z,23.63
2022-09-24T20:50:45.717Z,22.40
2022-09-24T20:52:48.460Z,20.47
2022-09-24T20:54:52.522Z,22.47
2022-09-24T20:56:55.858Z,20.80
2022-09-24T20:58:58.695Z,22.80
2022-09-24T21:01:01.581Z,21.87
2022-09-24T21:03:25.656Z,21.10
2022-09-24T21:05:28.063Z,20.83
2022-09-24T21:07:30.786Z,18.03
2022-09-24T21:09:33.468Z,20.33
2022-09-24T21:11:37.725Z,20.60
2022-09-24T21:13:41.247Z,19.67
2022-09-24T21:15:43.993Z,18.20
2022-09-24T21:18:05.105Z,18.13
2022-09-24T21:20:10.660Z,16.80
2022-09-24T21:22:13.563Z,17.47
2022-09-24T21:24:16.591Z,18.00
2022-09-24T21:26:20.403Z,18.50
2022-09-24T21:28:24.494Z,19.63
2022-09-24T21:30:27.825Z,19.77
2022-09-24T21:32:31.441Z,20.60
2022-09-24T21:34:35.085Z,19.53
2022-09-24T21:36:43.775Z,20.90
2022-09-24T21:38:52.754Z,20.07
2022-09-24T21:40:55.626Z,19.30
2022-09-24T21:43:00.115Z,21.07
2022-09-24T21:45:04.914Z,19.80
2022-09-24T21:47:07.580Z,19.70
2022-09-24T21:49:10.529Z,19.27
2022-09-24T21:51:19.358Z,19.50
2022-09-24T21:53:22.040Z,19.73
2022-09-24T21:55:25.588Z,19.63
2022-09-24T21:57:28.269Z,19.87
2022-09-24T21:59:48.721Z,19.23
2022-09-24T22:01:53.227Z,20.17
2022-09-24T22:03:56.395Z,18.00
2022-09-24T22:06:00.166Z,19.70
2022-09-24T22:08:03.332Z,20.33
2022-09-24T22:10:07.091Z,18.70
2022-09-24T22:12:10.314Z,20.53
2022-09-24T22:14:13.268Z,19.43
2022-09-24T22:16:15.932Z,19.50
2022-09-24T22:18:19.937Z,21.30
2022-09-24T22:20:22.618Z,19.70
2022-09-24T22:22:25.393Z,22.03
2022-09-24T22:24:28.398Z,22.53
2022-09-24T22:26:31.079Z,22.80
2022-09-24T22:28:33.942Z,23.67
2022-09-24T22:30:36.698Z,23.73
2022-09-24T22:32:39.407Z,26.33
2022-09-24T22:35:00.953Z,26.00
2022-09-24T22:37:05.947Z,24.60
2022-09-24T22:39:08.884Z,26.40
2022-09-24T22:41:12.089Z,25.03
2022-09-24T22:43:14.773Z,27.03
2022-09-24T22:45:17.800Z,24.43
2022-09-24T22:47:20.474Z,25.37
2022-09-24T22:49:23.451Z,26.50
2022-09-24T22:51:27.732Z,25.20
2022-09-24T22:53:30.449Z,25.20
2022-09-24T22:55:33.136Z,26.03
2022-09-24T22:57:35.800Z,27.10
2022-09-24T22:59:38.484Z,26.53
2022-09-24T23:01:42.104Z,25.77
2022-09-24T23:03:45.136Z,26.47
2022-09-24T23:05:47.801Z,28.07
2022-09-24T23:07:51.793Z,25.87
2022-09-24T23:09:54.815Z,28.53
2022-09-24T23:11:57.471Z,28.70
2022-09-24T23:14:01.417Z,27.10
2022-09-24T23:16:08.521Z,27.80
2022-09-24T23:18:11.191Z,27.17
2022-09-24T23:20:14.397Z,28.90
2022-09-24T23:22:17.209Z,28.47
2022-09-24T23:24:21.824Z,30.37
2022-09-24T23:26:24.907Z,27.70
2022-09-24T23:28:27.585Z,28.77
2022-09-24T23:30:31.321Z,26.90
2022-09-24T23:32:34.079Z,28.00
2022-09-24T23:34:36.785Z,27.70
2022-09-24T23:36:39.665Z,29.23
2022-09-24T23:38:42.407Z,28.50
2022-09-24T23:40:46.848Z,26.83
2022-09-24T23:42:49.983Z,27.50
2022-09-24T23:44:52.653Z,28.10
2022-09-24T23:46:56.445Z,29.63
2022-09-24T23:48:59.145Z,27.87
2022-09-24T23:51:01.840Z,28.70
2022-09-24T23:53:04.970Z,28.20
2022-09-24T23:55:08.333Z,30.67
2022-09-24T23:57:12.333Z,29.37
2022-09-24T23:59:15.007Z,28.17
